PWSweather.com
Personal Weather Stations
Station Observations
SWHWX01
St AppolinardFR 38160

St AppolinardFR 38160

Lat: 45.191, Lon: 5.268

Elevation: 1460

Station Type: Davis Vantage Pro2 Plus

Latest ConditionsUpdated 9:00:02 PM GMT+01:01 Friday, Aug 18, 2017
Currently Today's Max Today's Min Today's Average
Temperature 65.2°F18.4°C 88.3°F31.3°C 65.2°F18.4°C 74.1°F23.4°C
Dew Point 61.6°F16.4°C 65.8°F18.8°C 56.3°F13.5°C 61.3°F16.3°C
Winds 3.3 mph NE5.3 kmh NE 14.4 mph NW23.2 kmh NW - 3.3 mph 5.3 kmh
Wind Gusts 9.0 mph14.5 kmh 18.0 mph29.0 kmh - -
Humidity 88% 88% 40% 66%
Pressure 30.05 in1017.6 mb 30.05 in1017.6 mb 29.86 in1011.2 mb -
Precipitation - 0.06 in1.5 mm - -
Hour Temp Dew Point Humidity Winds Wind Gusts Pressure Precip Precip Rate Daily Precip Total
09:00 PM 65.2°F18.4°C 61.6°F16.4°C 88% 3.3 mph NE5.3 kmh NE 9.0 mph14.5 kmh 30.05 in1017.6 mb - 0.02 in0.5 mm 0.06 in1.5 mm
08:30 PM 68.1°F20.1°C 62.1°F16.7°C 81% 2.4 mph NNE3.9 kmh NNE 5.0 mph8.0 kmh 30.03 in1016.9 mb - 0.02 in0.5 mm 0.05 in1.3 mm
08:00 PM 68.4°F20.2°C 62.0°F16.7°C 80% 1.7 mph NE2.7 kmh NE 4.0 mph6.4 kmh 30.02 in1016.6 mb - 0.00 in0.0 mm 0.03 in0.8 mm
07:30 PM 68.6°F20.3°C 62.2°F16.8°C 80% 1.3 mph NE2.1 kmh NE 6.0 mph9.7 kmh 30.02 in1016.6 mb - 0.00 in0.0 mm 0.03 in0.8 mm
07:00 PM 69.2°F20.7°C 63.1°F17.3°C 81% 2.3 mph NE3.7 kmh NE 6.0 mph9.7 kmh 30.01 in1016.3 mb - 0.00 in0.0 mm 0.03 in0.8 mm
06:30 PM 70.1°F21.2°C 64.3°F17.9°C 82% 0.5 mph NE0.8 kmh NE 5.0 mph8.0 kmh 30.01 in1016.3 mb - 0.00 in0.0 mm 0.03 in0.8 mm
06:00 PM 70.8°F21.6°C 65.0°F18.3°C 82% 4.4 mph N7.1 kmh N 8.0 mph12.9 kmh 30.00 in1015.9 mb - 0.00 in0.0 mm 0.03 in0.8 mm
05:30 PM 70.5°F21.4°C 65.8°F18.8°C 85% 3.3 mph NE5.3 kmh NE 7.0 mph11.3 kmh 29.98 in1015.2 mb - 0.00 in0.0 mm 0.03 in0.8 mm
05:00 PM 70.0°F21.1°C 65.6°F18.7°C 86% 4.6 mph E7.4 kmh E 7.0 mph11.3 kmh 29.98 in1015.2 mb - 0.00 in0.0 mm 0.03 in0.8 mm
04:30 PM 69.5°F20.8°C 65.1°F18.4°C 86% 9.7 mph NW15.6 kmh NW 12.0 mph19.3 kmh 29.94 in1013.9 mb - 0.01 in0.3 mm 0.03 in0.8 mm
04:00 PM 71.2°F21.8°C 64.7°F18.2°C 80% 14.4 mph NW23.2 kmh NW 18.0 mph29.0 kmh 29.95 in1014.2 mb - 0.02 in0.5 mm 0.02 in0.5 mm
03:30 PM 85.4°F29.7°C 59.7°F15.4°C 42% 9.9 mph W15.9 kmh W 15.0 mph24.1 kmh 29.89 in1012.2 mb - 0.00 in0.0 mm 0.00 in0.0 mm
03:00 PM 88.2°F31.2°C 60.8°F16.0°C 40% 6.0 mph SW9.7 kmh SW 17.0 mph27.4 kmh 29.86 in1011.2 mb - 0.00 in0.0 mm 0.00 in0.0 mm
02:30 PM 88.3°F31.3°C 60.9°F16.1°C 40% 6.0 mph SW9.7 kmh SW 12.0 mph19.3 kmh 29.87 in1011.5 mb - 0.00 in0.0 mm 0.00 in0.0 mm
02:00 PM 86.8°F30.4°C 64.8°F18.2°C 48% 6.0 mph S9.7 kmh S 13.0 mph20.9 kmh 29.89 in1012.2 mb - 0.00 in0.0 mm 0.00 in0.0 mm
01:30 PM 85.9°F29.9°C 65.1°F18.4°C 50% 7.5 mph SW12.1 kmh SW 11.0 mph17.7 kmh 29.89 in1012.2 mb - 0.00 in0.0 mm 0.00 in0.0 mm
01:00 PM 84.5°F29.2°C 64.4°F18.0°C 51% 2.9 mph SW4.7 kmh SW 4.0 mph6.4 kmh 29.91 in1012.9 mb - 0.00 in0.0 mm 0.00 in0.0 mm
12:30 PM 84.6°F29.2°C 62.7°F17.1°C 48% 3.6 mph SW5.8 kmh SW 9.0 mph14.5 kmh 29.93 in1013.5 mb - 0.00 in0.0 mm 0.00 in0.0 mm
12:00 PM 83.7°F28.7°C 63.7°F17.6°C 51% 3.6 mph WSW5.8 kmh WSW 6.0 mph9.7 kmh 29.93 in1013.5 mb - 0.00 in0.0 mm 0.00 in0.0 mm
11:30 AM 82.0°F27.8°C 63.1°F17.3°C 53% 3.3 mph ENE5.3 kmh ENE 8.0 mph12.9 kmh 29.93 in1013.5 mb - 0.00 in0.0 mm 0.00 in0.0 mm
11:00 AM 80.2°F26.8°C 63.1°F17.3°C 56% 1.0 mph NE1.6 kmh NE 3.0 mph4.8 kmh 29.95 in1014.2 mb - 0.00 in0.0 mm 0.00 in0.0 mm
10:30 AM 78.7°F25.9°C 63.1°F17.3°C 59% 2.5 mph NE4.0 kmh NE 3.0 mph4.8 kmh 29.96 in1014.6 mb - 0.00 in0.0 mm 0.00 in0.0 mm
10:00 AM 78.6°F25.9°C 63.0°F17.2°C 59% 3.3 mph NNE5.3 kmh NNE 5.0 mph8.0 kmh 29.97 in1014.9 mb - 0.00 in0.0 mm 0.00 in0.0 mm
09:30 AM 77.8°F25.4°C 62.3°F16.8°C 59% 1.9 mph NNW3.1 kmh NNW 3.0 mph4.8 kmh 29.98 in1015.2 mb - 0.00 in0.0 mm 0.00 in0.0 mm
09:00 AM 76.8°F24.9°C 59.4°F15.2°C 55% 2.6 mph NNW4.2 kmh NNW 4.0 mph6.4 kmh 29.98 in1015.2 mb - 0.00 in0.0 mm 0.00 in0.0 mm
08:30 AM 74.8°F23.8°C 60.0°F15.6°C 60% 0.7 mph NNW1.1 kmh NNW 4.0 mph6.4 kmh 29.99 in1015.6 mb - 0.00 in0.0 mm 0.00 in0.0 mm
08:00 AM 73.8°F23.2°C 58.1°F14.5°C 58% 2.7 mph NNW4.3 kmh NNW 5.0 mph8.0 kmh 29.98 in1015.2 mb - 0.00 in0.0 mm 0.00 in0.0 mm
07:30 AM 73.0°F22.8°C 62.2°F16.8°C 69% 0.1 mph NNW0.2 kmh NNW -- 29.99 in1015.6 mb - 0.00 in0.0 mm 0.00 in0.0 mm
07:00 AM 70.8°F21.6°C 59.7°F15.4°C 68% Calm Calm -- 30.00 in1015.9 mb - 0.00 in0.0 mm 0.00 in0.0 mm
06:30 AM 68.4°F20.2°C 56.6°F13.7°C 66% 2.4 mph NNW3.9 kmh NNW 3.0 mph4.8 kmh 30.00 in1015.9 mb - 0.00 in0.0 mm 0.00 in0.0 mm
06:00 AM 69.9°F21.1°C 56.3°F13.5°C 62% 0.3 mph NNW0.5 kmh NNW 1.0 mph1.6 kmh 30.00 in1015.9 mb - 0.00 in0.0 mm 0.00 in0.0 mm
05:30 AM 69.3°F20.7°C 57.8°F14.3°C 67% Calm Calm 1.0 mph1.6 kmh 29.99 in1015.6 mb - 0.00 in0.0 mm 0.00 in0.0 mm
05:00 AM 68.0°F20.0°C 59.1°F15.1°C 73% 3.2 mph NNW5.1 kmh NNW 4.0 mph6.4 kmh 29.99 in1015.6 mb - 0.00 in0.0 mm 0.00 in0.0 mm
04:30 AM 67.8°F19.9°C 58.8°F14.9°C 73% 2.9 mph NNW4.7 kmh NNW 3.0 mph4.8 kmh 29.99 in1015.6 mb - 0.00 in0.0 mm 0.00 in0.0 mm
04:00 AM 67.7°F19.8°C 59.1°F15.1°C 74% Calm Calm 1.0 mph1.6 kmh 29.99 in1015.6 mb - 0.00 in0.0 mm 0.00 in0.0 mm
03:30 AM 68.0°F20.0°C 59.0°F15.0°C 73% 1.2 mph NNW1.9 kmh NNW 2.0 mph3.2 kmh 29.99 in1015.6 mb - 0.00 in0.0 mm 0.00 in0.0 mm
03:00 AM 69.1°F20.6°C 59.7°F15.4°C 72% 3.8 mph NNW6.1 kmh NNW 5.0 mph8.0 kmh 30.00 in1015.9 mb - 0.00 in0.0 mm 0.00 in0.0 mm
02:30 AM 69.8°F21.0°C 59.2°F15.1°C 69% Calm Calm -- 30.00 in1015.9 mb - 0.00 in0.0 mm 0.00 in0.0 mm
02:00 AM 69.6°F20.9°C 57.3°F14.1°C 65% 3.2 mph NNW5.1 kmh NNW 4.0 mph6.4 kmh 30.00 in1015.9 mb - 0.00 in0.0 mm 0.00 in0.0 mm
01:30 AM 71.3°F21.8°C 60.1°F15.6°C 68% 3.4 mph NNW5.5 kmh NNW 5.0 mph8.0 kmh 30.00 in1015.9 mb - 0.00 in0.0 mm 0.00 in0.0 mm
01:00 AM 71.5°F21.9°C 59.5°F15.3°C 66% 2.0 mph NNW3.2 kmh NNW 3.0 mph4.8 kmh 30.00 in1015.9 mb - 0.00 in0.0 mm 0.00 in0.0 mm
12:30 AM 71.0°F21.7°C 58.2°F14.6°C 64% 4.0 mph NNW6.4 kmh NNW 5.0 mph8.0 kmh 30.00 in1015.9 mb - 0.00 in0.0 mm 0.00 in0.0 mm
12:00 AM 70.3°F21.3°C 59.6°F15.3°C 69% 2.8 mph NNW4.5 kmh NNW 4.0 mph6.4 kmh 30.00 in1015.9 mb - 0.00 in0.0 mm 0.00 in0.0 mm